Forum - METEO

POST X METEO

Amministratore
F.ranco52 12/10/2021 ore 08:53 Quota

(nessuno) Nowcasting Martedì 12 Ottobre 2021

Buongiorno e Buona Giornata a tutti





Notizie Meteo dell'Italia da il Meteo .It


http://ilMeteo.It


la Situazione Italiana vista dal Sat









il Radar Europeo










Brindisi

METAR LIBR 120520Z 35015KT 9999 SCT035 17/10 Q1010=

METAR di Brindisi del 12 alle 5,20z

Vento da 350░ N NW 15 nodi (27,78 km) VtsibilitÓ 10000 m
Copertura 3-4 ottavi da 3500 piedi (1066,8 m)
Temp 17░C Dew 10░C Ur 62% hPa 1010

Brindisi

TAF LIBR 120500Z 1206/1306 34018KT 9999 FEW014 BKN020 TEMPO 1206/1210 34018G28KT=

le TAAF di Brindisi delle 5z Previsioni dalle 6z alle 6z del 13

Vento da 340░ N NW 18 nodi (33,336 km) VisibilitÓ 10000 m
Copertura 1-2 ottavi da 1400 piedi (426,72 m)
Copertura 5-7 ottavio da 2000 piedi (609,6 m)
il Tempo VarierÓ dalle 6z alle 10z
Vento da 340░ N NW 18 nodi (33,336 km)
Raffiche da 28 nodi (51,856 km)


Gioia del Colle

METAR LIBV 120455Z 30014KT 9999 FEW030 SCT045 12/09 Q1011 RMK BKN VIS MIN 9999 WIND THR32 32015KT WIND THR14 31012KT BLU=

METAR di Gioia del Colle del 12 alle 4,55z

Vento da 300░ W NW 14 nodi (25,928 km) VisibilitÓ 10000 m
Copertura 1-2 ott6avi da 3000 piedi (914,4 m)
Copertura 3-4 ottavi da 4500 piedi (1371,6 m)
Temp 12░C Dew 9░C Ur 76% hPa 1011
NuvolositÓ a 5-7 ottavi
VisibilitÓ Minima 10000 m

Gioia del Colle

TAF LIBV 120500Z 1206/1215 33015KT 9999 SCT030 TEMPO 1206/1209 7000 RA BKN025 BECMG 1208/1210 33018G32KT=

le TAF di Giia del Colle delle 5z Previsioni dalle 6z alle 15z

Vento da 330░ N NW 15 nodi (27,78 km) VisibilitÓ 10000 m
Copertura 3-4 ottavi da 3000 piedi (914,4 m)
il Tempo VarierÓ dalle 6z alle 9z
VisibilitÓ 7000 m , Pioggia
Copertura 5-7 ottavi da 2500 piedi (762 m)
le Condizioni Diverranno fra le 8z e le 10z
Vento da 330░ N NW 18 nodi (33,336 km)
Raffiche da 32 nodi (59,264 km)
2743280
Buongiorno e Buona Giornata a tutti Notizie Meteo dell'Italia da il Meteo .It http://ilMeteo.It la Situazione Italiana vista dal...
Discussione
12/10/2021 08:53:27
none
  • mi piace
    iLikeIt
    PublicVote

Vuoi partecipare anche tu a questa discussione?

Rispondi per lasciare il tuo messaggio in questa discussione